createdAt,value
2022-09-21T00:01:08.965Z,17.60
2022-09-21T00:03:36.415Z,17.60
2022-09-21T00:06:07.105Z,17.60
2022-09-21T00:08:33.821Z,17.60
2022-09-21T00:11:00.689Z,17.60
2022-09-21T00:13:28.365Z,17.50
2022-09-21T00:15:55.904Z,17.50
2022-09-21T00:18:23.306Z,17.50
2022-09-21T00:20:49.927Z,17.50
2022-09-21T00:23:16.544Z,17.50
2022-09-21T00:25:43.103Z,17.50
2022-09-21T00:28:09.697Z,17.50
2022-09-21T00:30:37.257Z,17.50
2022-09-21T00:33:03.863Z,17.40
2022-09-21T00:35:30.582Z,17.40
2022-09-21T00:38:00.385Z,17.40
2022-09-21T00:40:27.153Z,17.40
2022-09-21T00:42:53.845Z,17.40
2022-09-21T00:45:23.344Z,17.40
2022-09-21T00:47:52.022Z,17.40
2022-09-21T00:50:24.295Z,17.40
2022-09-21T00:52:54.512Z,17.30
2022-09-21T00:55:23.670Z,17.30
2022-09-21T00:57:52.514Z,17.30
2022-09-21T01:00:25.034Z,17.30
2022-09-21T01:02:51.664Z,17.30
2022-09-21T01:05:18.330Z,17.30
2022-09-21T01:07:46.385Z,17.30
2022-09-21T01:10:14.917Z,17.30
2022-09-21T01:12:41.417Z,17.20
2022-09-21T01:15:27.266Z,17.20
2022-09-21T01:17:57.085Z,17.20
2022-09-21T01:20:32.833Z,17.20
2022-09-21T01:23:02.589Z,17.20
2022-09-21T01:25:48.201Z,17.10
2022-09-21T01:28:29.325Z,17.10
2022-09-21T01:30:58.033Z,17.10
2022-09-21T01:33:24.545Z,17.10
2022-09-21T01:35:55.391Z,17.10
2022-09-21T01:38:25.239Z,17.10
2022-09-21T01:40:53.766Z,17.00
2022-09-21T01:43:22.129Z,17.00
2022-09-21T01:45:52.105Z,17.00
2022-09-21T01:48:19.903Z,17.00
2022-09-21T01:50:50.479Z,17.00
2022-09-21T01:53:17.196Z,17.00
2022-09-21T01:55:46.640Z,16.90
2022-09-21T01:58:22.039Z,16.90
2022-09-21T02:00:52.449Z,16.90
2022-09-21T02:03:28.498Z,16.90
2022-09-21T02:05:56.090Z,16.90
2022-09-21T02:08:23.078Z,16.90
2022-09-21T02:10:50.890Z,16.80
2022-09-21T02:13:18.313Z,16.80
2022-09-21T02:15:44.721Z,16.80
2022-09-21T02:18:24.181Z,16.80
2022-09-21T02:20:57.156Z,16.70
2022-09-21T02:23:26.162Z,16.70
2022-09-21T02:25:57.628Z,16.70
2022-09-21T02:28:28.216Z,16.70
2022-09-21T02:31:02.379Z,16.70
2022-09-21T02:33:32.388Z,16.60
2022-09-21T02:36:05.515Z,16.60
2022-09-21T02:38:32.092Z,16.60
2022-09-21T02:41:06.639Z,16.60
2022-09-21T02:43:45.484Z,16.60
2022-09-21T02:46:18.251Z,16.50
2022-09-21T02:48:47.444Z,16.50
2022-09-21T02:51:16.279Z,16.50
2022-09-21T02:53:43.835Z,16.50
2022-09-21T02:56:11.615Z,16.40
2022-09-21T02:58:41.256Z,16.40
2022-09-21T03:01:10.403Z,16.40
2022-09-21T03:03:37.109Z,16.40
2022-09-21T03:06:03.695Z,16.30
2022-09-21T03:08:30.505Z,16.30
2022-09-21T03:10:57.864Z,16.30
2022-09-21T03:13:24.655Z,16.30
2022-09-21T03:15:58.657Z,16.20
2022-09-21T03:18:25.130Z,16.20
2022-09-21T03:20:51.593Z,16.20
2022-09-21T03:23:17.999Z,16.20
2022-09-21T03:25:45.534Z,16.20
2022-09-21T03:28:13.500Z,16.10
2022-09-21T03:30:39.996Z,16.10
2022-09-21T03:33:06.422Z,16.10
2022-09-21T03:35:35.960Z,16.10
2022-09-21T03:38:02.737Z,16.00
2022-09-21T03:40:29.290Z,16.00
2022-09-21T03:42:56.151Z,16.00
2022-09-21T03:45:22.642Z,16.00
2022-09-21T03:47:49.158Z,15.90
2022-09-21T03:50:15.790Z,15.90
2022-09-21T03:52:42.297Z,15.90
2022-09-21T03:55:09.294Z,15.90
2022-09-21T03:57:36.368Z,15.80
2022-09-21T04:00:04.843Z,15.80
2022-09-21T04:02:32.132Z,15.80
2022-09-21T04:04:58.838Z,15.80
2022-09-21T04:07:25.552Z,15.80
2022-09-21T04:09:52.098Z,15.70
2022-09-21T04:12:22.127Z,15.70
2022-09-21T04:14:49.765Z,15.70
2022-09-21T04:17:16.283Z,15.70
2022-09-21T04:19:44.026Z,15.60
2022-09-21T04:22:12.042Z,15.60
2022-09-21T04:24:41.014Z,15.60
2022-09-21T04:27:08.190Z,15.60
2022-09-21T04:29:34.863Z,15.60
2022-09-21T04:32:01.403Z,15.50
2022-09-21T04:34:28.006Z,15.50
2022-09-21T04:36:54.787Z,15.50
2022-09-21T04:39:23.640Z,15.50
2022-09-21T04:41:50.219Z,15.40
2022-09-21T04:44:18.729Z,15.40
2022-09-21T04:46:45.467Z,15.40
2022-09-21T04:49:12.024Z,15.40
2022-09-21T04:51:39.145Z,15.30
2022-09-21T04:54:06.690Z,15.30
2022-09-21T04:56:33.550Z,15.30
2022-09-21T04:59:00.040Z,15.30
2022-09-21T05:01:26.463Z,15.20
2022-09-21T05:03:52.981Z,15.20
2022-09-21T05:06:19.445Z,15.20
2022-09-21T05:09:04.652Z,15.20
2022-09-21T05:11:31.585Z,15.10
2022-09-21T05:13:58.021Z,15.10
2022-09-21T05:16:24.467Z,15.10
2022-09-21T05:18:53.244Z,15.10
2022-09-21T05:21:19.654Z,15.00
2022-09-21T05:23:46.136Z,15.00
2022-09-21T05:26:12.736Z,15.00
2022-09-21T05:28:40.373Z,15.00
2022-09-21T05:31:17.965Z,14.90
2022-09-21T05:33:48.714Z,14.90
2022-09-21T05:36:35.640Z,14.90
2022-09-21T05:39:02.235Z,14.90
2022-09-21T05:41:28.859Z,14.90
2022-09-21T05:43:55.468Z,14.80
2022-09-21T05:46:40.893Z,14.80
2022-09-21T05:49:18.631Z,14.80
2022-09-21T05:51:54.474Z,14.70
2022-09-21T05:54:20.929Z,14.50
2022-09-21T05:56:47.430Z,14.50
2022-09-21T05:59:13.867Z,14.50
2022-09-21T06:01:58.695Z,14.50
2022-09-21T06:04:25.296Z,14.50
2022-09-21T06:06:51.728Z,14.50
2022-09-21T06:09:18.207Z,14.50
2022-09-21T06:11:54.333Z,14.50
2022-09-21T06:14:24.979Z,14.40
2022-09-21T06:16:51.818Z,14.40
2022-09-21T06:19:18.827Z,14.40
2022-09-21T06:21:45.518Z,14.40
2022-09-21T06:24:12.138Z,14.40
2022-09-21T06:26:38.612Z,14.40
2022-09-21T06:29:05.197Z,14.40
2022-09-21T06:31:31.660Z,14.40
2022-09-21T06:33:58.176Z,14.40
2022-09-21T06:36:24.806Z,14.40
2022-09-21T06:38:51.297Z,14.40
2022-09-21T06:41:21.232Z,14.40
2022-09-21T06:43:48.099Z,14.40
2022-09-21T06:46:14.607Z,14.40
2022-09-21T06:48:41.086Z,14.50
2022-09-21T06:51:07.679Z,14.50
2022-09-21T06:53:34.426Z,14.60
2022-09-21T06:56:05.147Z,14.60
2022-09-21T06:58:32.213Z,14.60
2022-09-21T07:00:58.997Z,14.60
2022-09-21T07:03:25.603Z,14.70
2022-09-21T07:05:52.067Z,14.70
2022-09-21T07:11:05.008Z,14.80
2022-09-21T07:13:31.651Z,14.90
2022-09-21T07:15:58.235Z,14.90
2022-09-21T07:18:24.766Z,14.90
2022-09-21T07:20:54.967Z,15.00
2022-09-21T07:23:22.433Z,15.10
2022-09-21T07:25:50.627Z,15.10
2022-09-21T07:28:17.214Z,15.30
2022-09-21T07:30:43.720Z,15.30
2022-09-21T07:33:13.085Z,15.30
2022-09-21T07:35:40.757Z,15.40
2022-09-21T07:38:09.117Z,15.60
2022-09-21T07:40:35.981Z,15.60
2022-09-21T07:43:02.952Z,15.80
2022-09-21T07:45:29.964Z,16.00
2022-09-21T07:48:01.795Z,15.90
2022-09-21T07:50:28.374Z,15.90
2022-09-21T07:52:54.930Z,15.80
2022-09-21T07:55:21.439Z,15.80
2022-09-21T07:58:08.385Z,16.00
2022-09-21T08:00:38.787Z,16.20
2022-09-21T08:03:08.413Z,16.30
2022-09-21T08:05:34.984Z,16.40
2022-09-21T08:08:04.099Z,16.70
2022-09-21T08:10:32.089Z,16.90
2022-09-21T08:12:58.819Z,17.00
2022-09-21T08:15:47.511Z,17.10
2022-09-21T08:18:12.032Z,17.20
2022-09-21T08:20:38.891Z,17.10
2022-09-21T08:23:05.283Z,17.30
2022-09-21T08:25:34.717Z,17.30
2022-09-21T08:28:02.502Z,17.20
2022-09-21T08:30:31.995Z,17.30
2022-09-21T08:32:58.459Z,17.20
2022-09-21T08:35:25.456Z,17.40
2022-09-21T08:37:53.384Z,17.60
2022-09-21T08:40:20.358Z,18.00
2022-09-21T08:42:50.875Z,18.10
2022-09-21T08:45:19.713Z,18.20
2022-09-21T08:47:48.965Z,18.30
2022-09-21T08:50:24.719Z,18.50
2022-09-21T08:52:52.320Z,18.60
2022-09-21T08:55:22.046Z,18.70
2022-09-21T08:57:48.553Z,18.70
2022-09-21T09:00:16.526Z,18.80
2022-09-21T09:03:02.089Z,18.80
2022-09-21T09:05:38.477Z,19.10
2022-09-21T09:08:14.693Z,19.30
2022-09-21T09:10:41.082Z,19.40
2022-09-21T09:13:26.325Z,19.60
2022-09-21T09:15:57.255Z,19.50
2022-09-21T09:18:29.398Z,19.70
2022-09-21T09:21:02.509Z,19.90
2022-09-21T09:23:32.066Z,19.90
2022-09-21T09:26:04.830Z,19.80
2022-09-21T09:28:37.956Z,20.20
2022-09-21T09:31:19.618Z,20.20
2022-09-21T09:33:51.031Z,20.20
2022-09-21T09:36:26.284Z,20.60
2022-09-21T09:39:15.095Z,20.70
2022-09-21T09:42:00.268Z,20.90
2022-09-21T09:44:32.722Z,20.80
2022-09-21T09:47:02.329Z,20.60
2022-09-21T09:49:41.082Z,21.00
2022-09-21T09:52:10.582Z,21.00
2022-09-21T09:54:37.075Z,21.10
2022-09-21T09:57:04.614Z,21.40
2022-09-21T09:59:44.604Z,21.70
2022-09-21T10:02:27.219Z,21.40
2022-09-21T10:04:59.661Z,21.10
2022-09-21T10:07:42.584Z,21.50
2022-09-21T10:10:27.804Z,21.50
2022-09-21T10:12:55.254Z,21.70
2022-09-21T10:15:24.000Z,21.70
2022-09-21T10:17:57.956Z,21.60
2022-09-21T10:20:25.412Z,21.80
2022-09-21T10:22:55.505Z,22.20
2022-09-21T10:25:22.082Z,22.00
2022-09-21T10:27:49.983Z,22.30
2022-09-21T10:30:38.835Z,22.60
2022-09-21T10:33:19.046Z,22.40
2022-09-21T10:35:49.353Z,22.70
2022-09-21T10:38:22.651Z,22.70
2022-09-21T10:40:50.104Z,22.90
2022-09-21T10:43:37.568Z,22.90
2022-09-21T10:46:06.371Z,22.80
2022-09-21T10:48:32.921Z,22.60
2022-09-21T10:51:02.000Z,22.60
2022-09-21T10:53:30.340Z,22.70
2022-09-21T10:56:20.211Z,22.80
2022-09-21T10:59:05.518Z,22.80
2022-09-21T11:01:32.012Z,22.60
2022-09-21T11:03:58.477Z,22.60
2022-09-21T11:06:31.725Z,22.70
2022-09-21T11:09:05.193Z,22.60
2022-09-21T11:11:39.674Z,22.70
2022-09-21T11:14:12.226Z,22.90
2022-09-21T11:16:46.913Z,22.90
2022-09-21T11:19:16.216Z,22.90
2022-09-21T11:22:02.558Z,22.80
2022-09-21T11:24:39.138Z,22.90
2022-09-21T11:27:05.567Z,22.90
2022-09-21T11:29:42.432Z,23.10
2022-09-21T11:32:11.908Z,23.10
2022-09-21T11:34:54.679Z,23.20
2022-09-21T11:37:39.416Z,23.20
2022-09-21T11:40:24.679Z,23.10
2022-09-21T11:42:58.152Z,23.30
2022-09-21T11:45:39.883Z,23.20
2022-09-21T11:48:17.329Z,23.30
2022-09-21T11:50:57.609Z,23.50
2022-09-21T11:53:47.328Z,23.60
2022-09-21T11:56:13.872Z,23.60
2022-09-21T11:58:49.782Z,23.60
2022-09-21T12:01:25.412Z,23.80
2022-09-21T12:04:03.573Z,23.70
2022-09-21T12:06:33.294Z,23.70
2022-09-21T12:09:15.764Z,23.80
2022-09-21T12:11:44.481Z,24.00
2022-09-21T12:14:17.489Z,24.00
2022-09-21T12:16:50.020Z,24.10
2022-09-21T12:19:16.496Z,24.20
2022-09-21T12:21:47.047Z,24.20
2022-09-21T12:24:22.483Z,24.40
2022-09-21T12:27:01.308Z,24.30
2022-09-21T12:29:27.787Z,24.30
2022-09-21T12:32:13.016Z,24.50
2022-09-21T12:34:42.033Z,24.40
2022-09-21T12:37:26.870Z,24.20
2022-09-21T12:39:56.490Z,24.50
2022-09-21T12:42:33.310Z,24.40
2022-09-21T12:45:20.038Z,24.50
2022-09-21T12:47:59.550Z,24.60
2022-09-21T12:50:37.485Z,24.50
2022-09-21T12:53:04.096Z,24.50
2022-09-21T12:56:01.259Z,24.40
2022-09-21T12:58:33.616Z,24.50
2022-09-21T13:01:00.441Z,24.30
2022-09-21T13:03:36.185Z,24.20
2022-09-21T13:06:25.612Z,24.30
2022-09-21T13:08:52.257Z,24.40
2022-09-21T13:11:21.636Z,24.30
2022-09-21T13:13:52.975Z,24.30
2022-09-21T13:16:45.729Z,24.50
2022-09-21T13:19:22.656Z,24.40
2022-09-21T13:22:08.551Z,24.60
2022-09-21T13:24:35.157Z,24.70
2022-09-21T13:27:05.102Z,24.60
2022-09-21T13:29:33.419Z,24.50
2022-09-21T13:32:01.611Z,24.50
2022-09-21T13:34:32.857Z,24.20
2022-09-21T13:37:11.564Z,24.30
2022-09-21T13:39:50.347Z,24.40
2022-09-21T13:42:32.185Z,24.40
2022-09-21T13:45:04.730Z,24.40
2022-09-21T13:47:32.911Z,24.30
2022-09-21T13:50:03.225Z,24.30
2022-09-21T13:52:32.117Z,24.30
2022-09-21T13:55:00.262Z,24.20
2022-09-21T13:57:46.921Z,24.20
2022-09-21T14:00:13.373Z,24.30
2022-09-21T14:02:41.415Z,24.10
2022-09-21T14:05:27.067Z,23.90
2022-09-21T14:07:57.821Z,23.90
2022-09-21T14:10:24.837Z,24.20
2022-09-21T14:12:51.285Z,24.20
2022-09-21T14:15:19.473Z,24.20
2022-09-21T14:17:46.240Z,24.20
2022-09-21T14:20:30.827Z,24.30
2022-09-21T14:23:17.384Z,24.30
2022-09-21T14:25:47.997Z,24.30
2022-09-21T14:28:17.634Z,24.30
2022-09-21T14:30:49.911Z,24.20
2022-09-21T14:33:26.247Z,24.20
2022-09-21T14:35:53.016Z,24.20
2022-09-21T14:38:19.564Z,24.20
2022-09-21T14:40:47.982Z,24.20
2022-09-21T14:43:20.927Z,24.20
2022-09-21T14:45:55.978Z,24.10
2022-09-21T14:48:38.132Z,24.10
2022-09-21T14:51:13.731Z,24.00
2022-09-21T14:53:58.538Z,24.00
2022-09-21T14:56:33.258Z,23.90
2022-09-21T14:59:08.246Z,23.80
2022-09-21T15:01:36.901Z,23.80
2022-09-21T15:04:45.749Z,23.80
2022-09-21T15:07:34.277Z,23.70
2022-09-21T15:10:31.043Z,23.70
2022-09-21T15:13:19.164Z,23.70
2022-09-21T15:16:00.045Z,23.70
2022-09-21T15:18:26.621Z,23.70
2022-09-21T15:21:04.041Z,23.70
2022-09-21T15:23:34.546Z,23.70
2022-09-21T15:26:08.044Z,23.60
2022-09-21T15:29:09.195Z,23.60
2022-09-21T15:31:37.464Z,23.60
2022-09-21T15:34:07.933Z,23.60
2022-09-21T15:36:37.766Z,23.60
2022-09-21T15:39:04.766Z,23.60
2022-09-21T15:41:41.987Z,23.60
2022-09-21T15:44:16.740Z,23.60
2022-09-21T15:46:44.959Z,23.60
2022-09-21T15:49:12.436Z,23.60
2022-09-21T15:51:41.723Z,23.60
2022-09-21T15:54:13.710Z,23.60
2022-09-21T15:56:42.919Z,23.50
2022-09-21T15:59:12.202Z,23.50
2022-09-21T16:01:42.955Z,23.50
2022-09-21T16:04:13.218Z,23.50
2022-09-21T16:06:44.592Z,23.50
2022-09-21T16:09:26.465Z,23.50
2022-09-21T16:11:53.538Z,23.40
2022-09-21T16:14:38.541Z,23.40
2022-09-21T16:17:13.906Z,23.40
2022-09-21T16:19:42.173Z,23.40
2022-09-21T16:22:13.089Z,23.30
2022-09-21T16:24:50.358Z,23.30
2022-09-21T16:27:18.277Z,23.30
2022-09-21T16:29:45.912Z,23.30
2022-09-21T16:32:14.239Z,23.30
2022-09-21T16:34:40.712Z,23.30
2022-09-21T16:37:24.271Z,23.20
2022-09-21T16:39:51.465Z,23.20
2022-09-21T16:42:18.047Z,23.20
2022-09-21T16:44:45.449Z,23.10
2022-09-21T16:47:14.317Z,23.10
2022-09-21T16:49:41.263Z,23.10
2022-09-21T16:52:07.698Z,23.10
2022-09-21T16:54:35.051Z,23.00
2022-09-21T16:57:02.764Z,23.00
2022-09-21T16:59:29.327Z,23.00
2022-09-21T17:01:57.242Z,22.90
2022-09-21T17:04:31.066Z,22.90
2022-09-21T17:06:58.406Z,22.90
2022-09-21T17:09:33.952Z,22.80
2022-09-21T17:12:01.659Z,22.80
2022-09-21T17:14:40.924Z,22.80
2022-09-21T17:17:24.295Z,22.70
2022-09-21T17:19:52.768Z,22.70
2022-09-21T17:22:19.557Z,22.60
2022-09-21T17:24:52.091Z,22.60
2022-09-21T17:27:23.514Z,22.60
2022-09-21T17:29:50.495Z,22.50
2022-09-21T17:32:20.664Z,22.50
2022-09-21T17:34:50.176Z,22.40
2022-09-21T17:37:16.669Z,22.40
2022-09-21T17:39:44.993Z,22.30
2022-09-21T17:42:16.592Z,22.30
2022-09-21T17:45:01.825Z,22.30
2022-09-21T17:47:29.355Z,22.20
2022-09-21T17:50:16.059Z,22.20
2022-09-21T17:53:01.876Z,22.10
2022-09-21T17:55:28.617Z,21.90
2022-09-21T17:58:18.664Z,21.80
2022-09-21T18:00:48.104Z,21.80
2022-09-21T18:03:25.127Z,21.80
2022-09-21T18:05:57.256Z,21.80
2022-09-21T18:08:26.489Z,21.70
2022-09-21T18:11:11.776Z,21.70
2022-09-21T18:13:47.144Z,21.70
2022-09-21T18:16:22.343Z,21.60
2022-09-21T18:19:20.119Z,21.60
2022-09-21T18:21:50.584Z,21.50
2022-09-21T18:24:31.514Z,21.50
2022-09-21T18:26:58.673Z,21.40
2022-09-21T18:29:42.966Z,21.40
2022-09-21T18:32:18.773Z,21.30
2022-09-21T18:35:05.996Z,21.30
2022-09-21T18:37:37.503Z,21.20
2022-09-21T18:40:10.055Z,21.20
2022-09-21T18:42:42.467Z,21.10
2022-09-21T18:45:15.522Z,21.10
2022-09-21T18:47:47.711Z,21.00
2022-09-21T18:50:33.476Z,21.00
2022-09-21T18:53:06.745Z,20.90
2022-09-21T18:55:33.488Z,20.90
2022-09-21T18:58:00.660Z,20.90
2022-09-21T19:00:31.656Z,20.80
2022-09-21T19:03:16.410Z,20.80
2022-09-21T19:06:07.553Z,20.70
2022-09-21T19:08:43.525Z,20.70
2022-09-21T19:11:20.637Z,20.60
2022-09-21T19:14:07.442Z,20.60
2022-09-21T19:16:48.669Z,20.50
2022-09-21T19:19:21.314Z,20.50
2022-09-21T19:21:58.346Z,20.40
2022-09-21T19:24:30.669Z,20.40
2022-09-21T19:27:15.820Z,20.30
2022-09-21T19:30:00.766Z,20.30
2022-09-21T19:32:47.057Z,20.30
2022-09-21T19:35:22.117Z,20.20
2022-09-21T19:37:49.127Z,20.20
2022-09-21T19:40:16.877Z,20.10
2022-09-21T19:43:03.699Z,20.10
2022-09-21T19:45:36.262Z,20.00
2022-09-21T19:48:04.539Z,20.00
2022-09-21T19:50:54.797Z,19.90
2022-09-21T19:53:41.041Z,19.90
2022-09-21T19:56:35.354Z,19.90
2022-09-21T19:59:20.383Z,19.80
2022-09-21T20:02:05.721Z,19.70
2022-09-21T20:04:40.559Z,19.70
2022-09-21T20:07:18.434Z,19.70
2022-09-21T20:09:58.067Z,19.60
2022-09-21T20:12:30.443Z,19.60
2022-09-21T20:15:01.730Z,19.50
2022-09-21T20:17:36.239Z,19.50
2022-09-21T20:20:23.266Z,19.50
2022-09-21T20:22:50.007Z,19.40
2022-09-21T20:25:20.505Z,19.40
2022-09-21T20:27:51.210Z,19.30
2022-09-21T20:30:19.677Z,19.30
2022-09-21T20:32:48.527Z,19.30
2022-09-21T20:35:15.712Z,19.20
2022-09-21T20:37:42.414Z,19.20
2022-09-21T20:40:09.847Z,19.10
2022-09-21T20:42:39.709Z,19.10
2022-09-21T20:45:06.698Z,19.10
2022-09-21T20:47:33.305Z,19.00
2022-09-21T20:49:59.852Z,19.00
2022-09-21T20:52:26.359Z,19.00
2022-09-21T20:54:52.964Z,18.90
2022-09-21T20:57:20.307Z,18.90
2022-09-21T20:59:46.832Z,18.80
2022-09-21T21:02:14.072Z,18.80
2022-09-21T21:04:40.604Z,18.80
2022-09-21T21:07:07.226Z,18.70
2022-09-21T21:09:33.694Z,18.70
2022-09-21T21:12:00.162Z,18.70
2022-09-21T21:14:26.787Z,18.60
2022-09-21T21:16:53.282Z,18.60
2022-09-21T21:19:19.856Z,18.50
2022-09-21T21:21:46.338Z,18.50
2022-09-21T21:24:31.415Z,18.40
2022-09-21T21:27:02.319Z,18.40
2022-09-21T21:29:29.778Z,18.40
2022-09-21T21:31:56.277Z,18.40
2022-09-21T21:34:23.270Z,18.30
2022-09-21T21:36:49.878Z,18.30
2022-09-21T21:39:16.353Z,18.30
2022-09-21T21:41:43.497Z,18.20
2022-09-21T21:44:11.453Z,18.20
2022-09-21T21:46:38.012Z,18.20
2022-09-21T21:49:04.704Z,18.10
2022-09-21T21:51:31.286Z,18.10
2022-09-21T21:53:57.790Z,18.10
2022-09-21T21:56:24.260Z,18.00
2022-09-21T21:58:54.466Z,18.00
2022-09-21T22:01:22.493Z,18.00
2022-09-21T22:03:56.101Z,17.90
2022-09-21T22:06:22.818Z,17.90
2022-09-21T22:08:49.719Z,17.90
2022-09-21T22:11:17.518Z,17.90
2022-09-21T22:13:45.241Z,17.80
2022-09-21T22:16:16.344Z,17.80
2022-09-21T22:18:43.435Z,17.70
2022-09-21T22:21:11.102Z,17.70
2022-09-21T22:23:37.614Z,17.70
2022-09-21T22:26:08.936Z,17.70
2022-09-21T22:28:36.752Z,17.60
2022-09-21T22:31:04.494Z,17.60
2022-09-21T22:33:33.263Z,17.60
2022-09-21T22:36:04.216Z,17.50
2022-09-21T22:38:31.911Z,17.50
2022-09-21T22:41:02.015Z,17.50
2022-09-21T22:43:28.777Z,17.40
2022-09-21T22:45:55.341Z,17.40
2022-09-21T22:48:21.802Z,17.40
2022-09-21T22:50:48.235Z,17.30
2022-09-21T22:53:14.660Z,17.30
2022-09-21T22:55:41.340Z,17.30
2022-09-21T22:58:07.796Z,17.30
2022-09-21T23:00:34.252Z,17.20
2022-09-21T23:03:00.696Z,17.20
2022-09-21T23:05:27.130Z,17.20
2022-09-21T23:07:54.807Z,17.20
2022-09-21T23:10:24.992Z,17.10
2022-09-21T23:12:51.950Z,17.10
2022-09-21T23:15:19.143Z,17.10
2022-09-21T23:17:45.983Z,17.00
2022-09-21T23:20:12.925Z,17.00
2022-09-21T23:22:39.516Z,17.00
2022-09-21T23:25:06.509Z,17.00
2022-09-21T23:27:32.958Z,16.90
2022-09-21T23:29:59.574Z,16.90
2022-09-21T23:32:26.585Z,16.90
2022-09-21T23:34:53.056Z,16.80
2022-09-21T23:37:19.520Z,16.80
2022-09-21T23:39:45.942Z,16.80
2022-09-21T23:42:12.397Z,16.70
2022-09-21T23:44:38.832Z,16.70
2022-09-21T23:47:05.337Z,16.70
2022-09-21T23:49:31.831Z,16.70
2022-09-21T23:51:58.193Z,16.60
2022-09-21T23:54:24.607Z,16.60
2022-09-21T23:56:51.012Z,16.60
2022-09-21T23:59:17.477Z,16.50
